Badhoevedorp-1 NW  Badhoevedorp-1 NW


Badhoevedorp-2 Zuid  Badhoevedorp-2 Zuid


Onweer radar Meer informatie blitzortung!


Regen radar Meer informatie rain snow radar



Het weer levert geen direct gevaar op.    Er zijn geen waarschuwingen afgegeven.

Weather Underground Historische gegevens

Dagelijkse Samenvatting april 19, 2019 Eenheden:  Metrisch    Engels   Beide
« Vorige Dag
Volgende Dag »
Dagelijkse Wekelijkse Maandelijkse Jaarlijkse Aangepaste
  Huidig: Hoog: Laag: Gemiddeld:
Temperatuur: -5.8 °C -17.8 °C -11.2 °C -9.4 °C
Dauwpunt: -12.9 °C -17.8 °C -14.9 °C -14.3 °C
Vochtigheid: 44 % Humidity % 43 % 55 %
Wind snelheid: 10.3 km/h 0 km/h 2.6 km/h 9 km/h
Windvlaag: 12.9 km/h 0 km/h - -
Wind:ENE - - ENE
Luchtdruk: 34841.9 hPa 0 hPa 34784.4 hPa -
Neerslag: 0 mm      
Historical Graphs
 
 
Tabel voor april 19, 2019
Tijd Temperatuur Dauwpunt Luchtdruk Wind Wind snelheid Windvlaag Vochtigheid Regenval per uur
-17.8 °C -17.8 °C 0 hPa Calm     Humidity % 0 mm
00:10 -8.8 °C -14.9 °C 34784.4 hPa NE 10.3 km/h 10.3 km/h 48 % 0 mm
00:20 -8.8 °C -14.9 °C 34797.9 hPa ENE 7.7 km/h 15.6 km/h 48 % 0 mm
00:30 -8.9 °C -14.9 °C 34797.9 hPa ENE 10.3 km/h 18.2 km/h 49 % 0 mm
00:40 -8.9 °C -14.9 °C 34797.9 hPa ENE 7.7 km/h 7.7 km/h 49 % 0 mm
00:50 -9 °C -14.9 °C 34797.9 hPa NE 7.7 km/h 10.3 km/h 49 % 0 mm
01:00 -9.1 °C -14.8 °C 34797.9 hPa NE 10.3 km/h 10.3 km/h 50 % 0 mm
01:10 -9.2 °C -14.8 °C 34797.9 hPa NE 10.3 km/h 10.3 km/h 51 % 0 mm
01:20 -9.3 °C -14.9 °C 34808.1 hPa NE 7.7 km/h 10.3 km/h 51 % 0 mm
01:30 -9.5 °C -14.9 °C 34808.1 hPa ENE 10.3 km/h 10.3 km/h 52 % 0 mm
01:50 -9.7 °C -14.8 °C 34808.1 hPa NNE 7.7 km/h 12.9 km/h 54 % 0 mm
02:00 -9.8 °C -14.6 °C 34808.1 hPa NE 10.3 km/h 10.3 km/h 56 % 0 mm
02:10 -9.8 °C -14.7 °C 34808.1 hPa NE 10.3 km/h 12.9 km/h 56 % 0 mm
02:20 -9.9 °C -14.7 °C 34808.1 hPa East 12.9 km/h 12.9 km/h 56 % 0 mm
02:30 -9.9 °C -14.8 °C 34808.1 hPa NE 12.9 km/h 12.9 km/h 56 % 0 mm
02:40 -10.1 °C -14.7 °C 34808.1 hPa ENE 10.3 km/h 10.3 km/h 57 % 0 mm
02:50 -10.1 °C -14.6 °C 34808.1 hPa ENE 10.3 km/h 25.9 km/h 58 % 0 mm
03:00 -10.2 °C -14.6 °C 34808.1 hPa ENE 10.3 km/h 10.3 km/h 59 % 0 mm
03:10 -10.3 °C -14.7 °C 34808.1 hPa ENE 12.9 km/h 12.9 km/h 59 % 0 mm
03:20 -10.3 °C -14.6 °C 34808.1 hPa ENE 12.9 km/h 25.9 km/h 60 % 0 mm
03:30 -10.4 °C -14.6 °C 34808.1 hPa ENE 12.9 km/h 18.2 km/h 60 % 0 mm
03:40 -10.4 °C -14.6 °C 34808.1 hPa ENE 12.9 km/h 12.9 km/h 61 % 0 mm
03:50 -10.5 °C -14.6 °C 34808.1 hPa NE 10.3 km/h 12.9 km/h 61 % 0 mm
04:10 -10.6 °C -14.6 °C 34808.1 hPa NE 12.9 km/h 18.2 km/h 61 % 0 mm
04:20 -10.6 °C -14.7 °C 34808.1 hPa NE 12.9 km/h 12.9 km/h 61 % 0 mm
04:30 -10.6 °C -14.7 °C 34818.2 hPa NE 12.9 km/h 12.9 km/h 61 % 0 mm
04:40 -10.7 °C -14.6 °C 34818.2 hPa ENE 10.3 km/h 10.3 km/h 62 % 0 mm
04:50 -10.7 °C -14.7 °C 34818.2 hPa NE 10.3 km/h 10.3 km/h 62 % 0 mm
05:00 -10.7 °C -14.6 °C 34818.2 hPa NE 10.3 km/h 10.3 km/h 63 % 0 mm
05:10 -10.8 °C -14.6 °C 34818.2 hPa NE 10.3 km/h 12.9 km/h 63 % 0 mm
05:20 -10.8 °C -14.5 °C 34818.2 hPa NE 10.3 km/h 10.3 km/h 64 % 0 mm
05:30 -10.9 °C -14.6 °C 34818.2 hPa NE 10.3 km/h 10.3 km/h 64 % 0 mm
05:40 -10.9 °C -14.5 °C 34818.2 hPa NE 10.3 km/h 10.3 km/h 65 % 0 mm
05:50 -10.9 °C -14.5 °C 34818.2 hPa NE 10.3 km/h 10.3 km/h 65 % 0 mm
06:00 -10.9 °C -14.5 °C 34831.8 hPa ENE 10.3 km/h 10.3 km/h 65 % 0 mm
06:10 -11 °C -14.6 °C 34818.2 hPa NE 10.3 km/h 10.3 km/h 65 % 0 mm
06:20 -11 °C -14.6 °C 34831.8 hPa NE 10.3 km/h 12.9 km/h 65 % 0 mm
06:30 -11.1 °C -14.5 °C 34831.8 hPa NE 7.7 km/h 7.7 km/h 66 % 0 mm
06:40 -11.1 °C -14.5 °C 34831.8 hPa ENE 10.3 km/h 10.3 km/h 66 % 0 mm
06:50 -11.2 °C -14.6 °C 34831.8 hPa ENE 7.7 km/h 7.7 km/h 66 % 0 mm
07:00 -11.2 °C -14.6 °C 34831.8 hPa NE 7.7 km/h 7.7 km/h 66 % 0 mm
07:10 -11.2 °C -14.6 °C 34841.9 hPa East 7.7 km/h 7.7 km/h 66 % 0 mm
07:20 -11.2 °C -14.6 °C 34841.9 hPa NE 10.3 km/h 10.3 km/h 66 % 0 mm
07:30 -11.1 °C -14.6 °C 34841.9 hPa NE 7.7 km/h 7.7 km/h 66 % 0 mm
07:40 -11.1 °C -14.6 °C 34841.9 hPa NE 7.7 km/h 7.7 km/h 65 % 0 mm
07:50 -11.1 °C -14.7 °C 34841.9 hPa ENE 7.7 km/h 10.3 km/h 64 % 0 mm
08:10 -10.9 °C -14.7 °C 34852.1 hPa East 5.1 km/h 5.1 km/h 63 % 0 mm
08:20 -10.7 °C -14.6 °C 34852.1 hPa NE 5.1 km/h 7.7 km/h 62 % 0 mm
08:30 -10.5 °C -14.6 °C 34852.1 hPa NE 7.7 km/h 7.7 km/h 61 % 0 mm
08:40 -10.3 °C -14.6 °C 34852.1 hPa NNE 5.1 km/h 7.7 km/h 60 % 0 mm
08:50 -10.2 °C -14.6 °C 34852.1 hPa NE 7.7 km/h 7.7 km/h 59 % 0 mm
09:00 -10.1 °C -14.6 °C 34852.1 hPa ENE 7.7 km/h 12.9 km/h 58 % 0 mm
09:10 -9.9 °C -14.5 °C 34865.6 hPa ENE 7.7 km/h 10.3 km/h 58 % 0 mm
09:20 -9.9 °C -14.5 °C 34865.6 hPa East 7.7 km/h 10.3 km/h 58 % 0 mm
09:30 -9.8 °C -14.4 °C 34865.6 hPa ENE 7.7 km/h 7.7 km/h 58 % 0 mm
09:40 -9.7 °C -14.2 °C 34865.6 hPa ESE 10.3 km/h 10.3 km/h 58 % 0 mm
09:50 -9.3 °C -14.2 °C 34865.6 hPa ENE 7.7 km/h 7.7 km/h 56 % 0 mm
10:00 -9 °C -14 °C 34865.6 hPa NE 7.7 km/h 18.2 km/h 55 % 0 mm
10:10 -8.7 °C -13.9 °C 34865.6 hPa East 7.7 km/h 7.7 km/h 54 % 0 mm
10:20 -8.6 °C -14.1 °C 34875.8 hPa NE 7.7 km/h 12.9 km/h 52 % 0 mm
10:30 -8.6 °C -14.1 °C 34865.6 hPa ENE 10.3 km/h 10.3 km/h 52 % 0 mm
10:40 -7.9 °C -13.7 °C 34865.6 hPa ENE 2.6 km/h 2.6 km/h 50 % 0 mm
10:50 -7.6 °C -14 °C 34865.6 hPa North 5.1 km/h 7.7 km/h 47 % 0 mm
11:10 -7.6 °C -13.8 °C 34865.6 hPa ENE 10.3 km/h 10.3 km/h 48 % 0 mm
11:20 -7.3 °C -13.7 °C 34865.6 hPa ENE 5.1 km/h 5.1 km/h 47 % 0 mm
11:30 -6.9 °C -13.8 °C 34865.6 hPa East 5.1 km/h 5.1 km/h 45 % 0 mm
11:40 -6.8 °C -13.4 °C 34865.6 hPa NE 5.1 km/h 5.1 km/h 46 % 0 mm
11:50 -6.8 °C -13.8 °C 34865.6 hPa NE 7.7 km/h 10.3 km/h 44 % 0 mm
12:10 -6.5 °C -13.5 °C 34865.6 hPa NNE 7.7 km/h 10.3 km/h 44 % 0 mm
12:20 -6.5 °C -13.5 °C 34852.1 hPa NE 7.7 km/h 7.7 km/h 44 % 0 mm
12:30 -6.3 °C -13.6 °C 34852.1 hPa ENE 7.7 km/h 12.9 km/h 43 % 0 mm
12:40 -6.2 °C -13.4 °C 34852.1 hPa NE 7.7 km/h 7.7 km/h 43 % 0 mm
12:51 -6.2 °C -12.9 °C 34852.1 hPa NE 10.3 km/h 10.3 km/h 46 % 0 mm
13:00 -5.9 °C -12.9 °C 34852.1 hPa North 5.1 km/h 20.8 km/h 44 % 0 mm
13:10 -6.1 °C -13.2 °C 34852.1 hPa North 10.3 km/h 10.3 km/h 44 % 0 mm
13:20 -5.8 °C -12.9 °C 34852.1 hPa North 7.7 km/h 7.7 km/h 44 % 0 mm
13:30 -5.9 °C -12.8 °C 34852.1 hPa NNE 10.3 km/h 12.9 km/h 45 % 0 mm
13:40 -6.1 °C -12.8 °C 34852.1 hPa NNE 12.9 km/h 15.6 km/h 46 % 0 mm
14:00 -6 °C -12.7 °C 34852.1 hPa East 12.9 km/h 12.9 km/h 46 % 0 mm
14:10 -5.8 °C -12.9 °C 34841.9 hPa ENE 10.3 km/h 12.9 km/h 44 % 0 mm
meteoBadhoevedorp
Gegevens verzameld door Weather Underground - 2 mb

Script ontwikkeld door  Jim McMurry - jmcmurry@mwt.net Aangepast voor de template door  Wim van der Kuil - Leuven-Template.eu